Time,TemperatureF,DewpointF,PressureIn,WindDirection,WindDirectionDegrees,WindSpeedMPH,WindSpeedGustMPH,Humidity,HourlyPrecipIn,Conditions,Clouds,dailyrainin,SoftwareType,DateUTC
2013-06-09 00:03:00,69.0,-99.9,-100.00,SSE,159,1.0,3.0,-999,-99.99,,,-99.99,,2013-06-09 04:03:00,
2013-06-09 00:13:00,69.0,-99.9,-100.00,SSE,161,2.0,2.0,-999,-99.99,,,-99.99,,2013-06-09 04:13:00,
2013-06-09 00:23:00,68.0,-99.9,-100.00,South,170,2.0,3.0,-999,-99.99,,,-99.99,,2013-06-09 04:23:00,
2013-06-09 00:33:00,68.0,-99.9,-100.00,SSE,159,1.0,2.0,-999,-99.99,,,-99.99,,2013-06-09 04:33:00,
2013-06-09 00:43:00,68.0,-99.9,-100.00,South,170,1.0,1.0,-999,-99.99,,,-99.99,,2013-06-09 04:43:00,
2013-06-09 00:53:00,68.0,-99.9,-100.00,South,188,2.0,3.0,-999,-99.99,,,-99.99,,2013-06-09 04:53:00,
2013-06-09 01:02:00,68.0,-99.9,30.04,SSW,194,2.0,3.0,-999,-99.99,,,-99.99,,2013-06-09 05:02:00,
2013-06-09 01:12:00,68.0,-99.9,-100.00,SSE,166,1.0,1.0,-999,-99.99,,,-99.99,,2013-06-09 05:12:00,
2013-06-09 01:22:00,67.0,-99.9,-100.00,SSW,201,0.0,2.0,-999,-99.99,,,-99.99,,2013-06-09 05:22:00,
2013-06-09 01:32:00,67.0,-99.9,30.04,SSW,201,-999.0,0.0,-999,-99.99,,,-99.99,,2013-06-09 05:32:00,
2013-06-09 01:42:00,65.0,-99.9,-100.00,NE,41,2.0,3.0,-999,-99.99,,,-99.99,,2013-06-09 05:42:00,
2013-06-09 01:52:00,65.0,-99.9,-100.00,NNE,13,0.0,2.0,-999,-99.99,,,-99.99,,2013-06-09 05:52:00,
2013-06-09 02:02:00,64.0,-99.9,-100.00,North,-999,-999.0,-999.0,-999,-99.99,,,-99.99,,2013-06-09 06:02:00,
2013-06-09 02:12:00,64.0,-99.9,-100.00,South,189,1.0,2.0,-999,-99.99,,,-99.99,,2013-06-09 06:12:00,
2013-06-09 02:22:00,64.0,-99.9,-100.00,SSW,192,-999.0,1.0,-999,-99.99,,,-99.99,,2013-06-09 06:22:00,
2013-06-09 02:32:00,64.0,-99.9,30.05,NNE,31,2.0,2.0,-999,-99.99,,,-99.99,,2013-06-09 06:32:00,
2013-06-09 02:42:00,64.0,-99.9,-100.00,NE,46,1.0,2.0,-999,-99.99,,,-99.99,,2013-06-09 06:42:00,
2013-06-09 02:52:00,63.0,-99.9,-100.00,SSW,201,-999.0,3.0,-999,-99.99,,,-99.99,,2013-06-09 06:52:00,
2013-06-09 03:02:00,63.0,-99.9,30.05,South,184,3.0,3.0,-999,-99.99,,,-99.99,,2013-06-09 07:02:00,
2013-06-09 03:12:00,64.0,-99.9,-100.00,SSE,148,1.0,2.0,-999,-99.99,,,-99.99,,2013-06-09 07:12:00,
2013-06-09 03:22:00,63.0,-99.9,-100.00,South,175,2.0,2.0,-999,-99.99,,,-99.99,,2013-06-09 07:22:00,
2013-06-09 03:32:00,64.0,-99.9,30.06,South,172,0.0,2.0,-999,-99.99,,,-99.99,,2013-06-09 07:32:00,
2013-06-09 03:42:00,64.0,-99.9,30.06,South,172,0.0,2.0,-999,-99.99,,,-99.99,,2013-06-09 07:42:00,
2013-06-09 04:02:00,64.0,-99.9,30.06,NNE,27,2.0,3.0,-999,-99.99,,,-99.99,,2013-06-09 08:02:00,
2013-06-09 04:12:00,64.0,-99.9,-100.00,NNE,16,2.0,4.0,-999,-99.99,,,-99.99,,2013-06-09 08:12:00,
2013-06-09 04:22:00,64.0,-99.9,-100.00,SW,224,0.0,2.0,-999,-99.99,,,-99.99,,2013-06-09 08:22:00,
2013-06-09 04:32:00,63.0,-99.9,30.06,South,185,1.0,2.0,-999,-99.99,,,-99.99,,2013-06-09 08:32:00,
2013-06-09 04:42:00,63.0,-99.9,-100.00,South,175,-999.0,2.0,-999,-99.99,,,-99.99,,2013-06-09 08:42:00,
2013-06-09 04:53:00,64.0,-99.9,-100.00,North,349,-999.0,2.0,-999,-99.99,,,-99.99,,2013-06-09 08:53:00,
2013-06-09 05:02:00,64.0,-99.9,30.07,NNE,25,2.0,2.0,-999,-99.99,,,-99.99,,2013-06-09 09:02:00,
2013-06-09 05:12:00,63.0,-99.9,-100.00,NNE,20,3.0,4.0,-999,-99.99,,,-99.99,,2013-06-09 09:12:00,
2013-06-09 05:22:00,63.0,-99.9,-100.00,NE,37,1.0,3.0,-999,-99.99,,,-99.99,,2013-06-09 09:22:00,
2013-06-09 05:33:00,63.0,-99.9,-100.00,South,182,2.0,3.0,-999,-99.99,,,-99.99,,2013-06-09 09:33:00,
2013-06-09 05:43:00,62.0,-99.9,-100.00,East,98,1.0,3.0,-999,-99.99,,,-99.99,,2013-06-09 09:43:00,
2013-06-09 05:53:00,62.0,-99.9,-100.00,NE,54,2.0,2.0,-999,-99.99,,,-99.99,,2013-06-09 09:53:00,
2013-06-09 06:03:00,62.0,-99.9,30.09,ENE,63,-999.0,2.0,-999,-99.99,,,-99.99,,2013-06-09 10:03:00,
2013-06-09 06:13:00,62.0,-99.9,-100.00,South,191,2.0,3.0,-999,-99.99,,,-99.99,,2013-06-09 10:13:00,
2013-06-09 06:23:00,62.0,-99.9,-100.00,NNE,19,-999.0,0.0,-999,-99.99,,,-99.99,,2013-06-09 10:23:00,
2013-06-09 06:33:00,62.0,-99.9,30.11,NNE,19,0.0,1.0,-999,-99.99,,,-99.99,,2013-06-09 10:33:00,
2013-06-09 06:43:00,62.0,-99.9,-100.00,SSW,210,1.0,1.0,-999,-99.99,,,-99.99,,2013-06-09 10:43:00,
2013-06-09 06:52:00,62.0,-99.9,-100.00,SSW,210,1.0,1.0,-999,-99.99,,,-99.99,,2013-06-09 10:52:00,
2013-06-09 07:02:00,62.0,-99.9,30.13,South,188,2.0,2.0,-999,-99.99,,,-99.99,,2013-06-09 11:02:00,
2013-06-09 07:12:00,62.0,-99.9,-100.00,North,-999,-999.0,-999.0,-999,-99.99,,,-99.99,,2013-06-09 11:12:00,
2013-06-09 07:22:00,63.0,-99.9,-100.00,North,2,-999.0,2.0,-999,-99.99,,,-99.99,,2013-06-09 11:22:00,
2013-06-09 07:32:00,63.0,-99.9,30.12,NNE,16,1.0,2.0,-999,-99.99,,,-99.99,,2013-06-09 11:32:00,
2013-06-09 07:42:00,66.0,-99.9,-100.00,NE,48,1.0,2.0,-999,-99.99,,,-99.99,,2013-06-09 11:42:00,
2013-06-09 07:53:00,66.0,-99.9,-100.00,ENE,66,-999.0,2.0,-999,-99.99,,,-99.99,,2013-06-09 11:53:00,
2013-06-09 08:03:00,64.0,-99.9,30.13,SSW,201,2.0,3.0,-999,-99.99,,,-99.99,,2013-06-09 12:03:00,
2013-06-09 08:12:00,64.0,-99.9,-100.00,SSW,205,2.0,2.0,-999,-99.99,,,-99.99,,2013-06-09 12:12:00,
2013-06-09 08:22:00,67.0,-99.9,-100.00,South,172,2.0,2.0,-999,-99.99,,,-99.99,,2013-06-09 12:22:00,
2013-06-09 08:32:00,68.0,-99.9,30.14,SE,142,1.0,2.0,-999,-99.99,,,-99.99,,2013-06-09 12:32:00,
2013-06-09 08:42:00,69.0,-99.9,-100.00,SSE,168,-999.0,2.0,-999,-99.99,,,-99.99,,2013-06-09 12:42:00,
2013-06-09 08:53:00,69.0,-99.9,-100.00,SSW,201,1.0,2.0,-999,-99.99,,,-99.99,,2013-06-09 12:53:00,
2013-06-09 09:02:00,68.0,-99.9,-100.00,SSW,208,2.0,2.0,-999,-99.99,,,-99.99,,2013-06-09 13:02:00,
2013-06-09 09:13:00,67.0,-99.9,-100.00,SSW,212,3.0,3.0,-999,-99.99,,,-99.99,,2013-06-09 13:13:00,
2013-06-09 09:23:00,68.0,-99.9,-100.00,SW,216,2.0,2.0,-999,-99.99,,,-99.99,,2013-06-09 13:23:00,
2013-06-09 09:32:00,69.0,-99.9,30.15,SW,229,2.0,2.0,-999,-99.99,,,-99.99,,2013-06-09 13:32:00,
2013-06-09 09:43:00,71.0,-99.9,-100.00,SSW,204,-999.0,1.0,-999,-99.99,,,-99.99,,2013-06-09 13:43:00,
2013-06-09 09:52:00,72.0,-99.9,-100.00,North,-999,-999.0,-999.0,-999,-99.99,,,-99.99,,2013-06-09 13:52:00,
2013-06-09 10:02:00,71.0,-99.9,30.15,SSW,204,0.0,1.0,-999,-99.99,,,-99.99,,2013-06-09 14:02:00,
2013-06-09 10:12:00,71.0,-99.9,-100.00,SSW,204,2.0,3.0,-999,-99.99,,,-99.99,,2013-06-09 14:12:00,
2013-06-09 10:22:00,72.0,-99.9,-100.00,South,170,1.0,2.0,-999,-99.99,,,-99.99,,2013-06-09 14:22:00,
2013-06-09 10:32:00,72.0,-99.9,-100.00,SW,214,1.0,2.0,-999,-99.99,,,-99.99,,2013-06-09 14:32:00,
2013-06-09 10:43:00,71.0,-99.9,-100.00,SW,215,2.0,2.0,-999,-99.99,,,-99.99,,2013-06-09 14:43:00,
2013-06-09 10:52:00,71.0,-99.9,-100.00,SW,216,2.0,3.0,-999,-99.99,,,-99.99,,2013-06-09 14:52:00,
2013-06-09 11:02:00,71.0,-99.9,30.15,SW,218,2.0,2.0,-999,-99.99,,,-99.99,,2013-06-09 15:02:00,
2013-06-09 11:12:00,73.0,-99.9,-100.00,SSW,212,-999.0,1.0,-999,-99.99,,,-99.99,,2013-06-09 15:12:00,
2013-06-09 11:22:00,74.0,-99.9,-100.00,SW,236,1.0,1.0,-999,-99.99,,,-99.99,,2013-06-09 15:22:00,
2013-06-09 11:33:00,74.0,-99.9,30.14,NNW,330,1.0,2.0,-999,-99.99,,,-99.99,,2013-06-09 15:33:00,
2013-06-09 11:44:00,75.0,-99.9,-100.00,SW,214,0.0,1.0,-999,-99.99,,,-99.99,,2013-06-09 15:44:00,
2013-06-09 11:53:00,74.0,-99.9,-100.00,WSW,243,0.0,2.0,-999,-99.99,,,-99.99,,2013-06-09 15:53:00,
2013-06-09 12:03:00,74.0,-99.9,30.14,NW,304,1.0,2.0,-999,-99.99,,,-99.99,,2013-06-09 16:03:00,
2013-06-09 12:13:00,76.0,-99.9,-100.00,NNE,23,3.0,4.0,-999,-99.99,,,-99.99,,2013-06-09 16:13:00,
2013-06-09 12:23:00,74.0,-99.9,-100.00,NNW,337,4.0,5.0,-999,-99.99,,,-99.99,,2013-06-09 16:23:00,
2013-06-09 12:33:00,74.0,-99.9,30.14,WNW,295,2.0,3.0,-999,-99.99,,,-99.99,,2013-06-09 16:33:00,
2013-06-09 12:43:00,74.0,-99.9,-100.00,WSW,253,2.0,4.0,-999,-99.99,,,-99.99,,2013-06-09 16:43:00,
2013-06-09 12:53:00,74.0,-99.9,-100.00,NW,312,2.0,3.0,-999,-99.99,,,-99.99,,2013-06-09 16:53:00,
2013-06-09 13:03:00,74.0,-99.9,30.13,NW,306,2.0,4.0,-999,-99.99,,,-99.99,,2013-06-09 17:03:00,
2013-06-09 13:12:00,73.0,-99.9,-100.00,West,276,8.0,9.0,-999,-99.99,,,-99.99,,2013-06-09 17:12:00,
2013-06-09 13:22:00,73.0,-99.9,-100.00,West,280,9.0,10.0,-999,-99.99,,,-99.99,,2013-06-09 17:22:00,
2013-06-09 13:32:00,73.0,-99.9,-100.00,West,272,7.0,9.0,-999,-99.99,,,-99.99,,2013-06-09 17:32:00,
2013-06-09 13:42:00,73.0,-99.9,-100.00,West,281,7.0,9.0,-999,-99.99,,,-99.99,,2013-06-09 17:42:00,
2013-06-09 13:52:00,74.0,-99.9,-100.00,WNW,283,10.0,13.0,-999,-99.99,,,-99.99,,2013-06-09 17:52:00,
2013-06-09 14:03:00,75.0,-99.9,30.13,West,279,9.0,12.0,-999,-99.99,,,-99.99,,2013-06-09 18:03:00,
2013-06-09 14:12:00,75.0,-99.9,-100.00,WNW,287,9.0,11.0,-999,-99.99,,,-99.99,,2013-06-09 18:12:00,
2013-06-09 14:22:00,74.0,-99.9,-100.00,West,273,10.0,12.0,-999,-99.99,,,-99.99,,2013-06-09 18:22:00,
2013-06-09 14:33:00,75.0,-99.9,30.12,WNW,286,9.0,13.0,-999,-99.99,,,-99.99,,2013-06-09 18:33:00,
2013-06-09 14:42:00,75.0,-99.9,30.12,WNW,287,8.0,11.0,-999,-99.99,,,-99.99,,2013-06-09 18:42:00,
2013-06-09 14:52:00,75.0,-99.9,30.12,WNW,287,8.0,11.0,-999,-99.99,,,-99.99,,2013-06-09 18:52:00,
2013-06-09 15:13:00,76.0,-99.9,-100.00,West,277,8.0,9.0,-999,-99.99,,,-99.99,,2013-06-09 19:13:00,
2013-06-09 15:22:00,75.0,-99.9,-100.00,SW,216,6.0,10.0,-999,-99.99,,,-99.99,,2013-06-09 19:22:00,
2013-06-09 15:32:00,76.0,-99.9,30.11,SSW,203,4.0,7.0,-999,-99.99,,,-99.99,,2013-06-09 19:32:00,
2013-06-09 15:43:00,76.0,-99.9,-100.00,SSW,194,7.0,9.0,-999,-99.99,,,-99.99,,2013-06-09 19:43:00,
2013-06-09 15:52:00,75.0,-99.9,-100.00,SSW,197,9.0,12.0,-999,-99.99,,,-99.99,,2013-06-09 19:52:00,
2013-06-09 16:03:00,76.0,-99.9,-100.00,SSW,204,12.0,15.0,-999,-99.99,,,-99.99,,2013-06-09 20:03:00,
2013-06-09 16:12:00,76.0,-99.9,-100.00,SSW,212,13.0,14.0,-999,-99.99,,,-99.99,,2013-06-09 20:12:00,
2013-06-09 16:22:00,75.0,-99.9,-100.00,South,189,8.0,12.0,-999,-99.99,,,-99.99,,2013-06-09 20:22:00,
2013-06-09 16:32:00,75.0,-99.9,30.10,SSW,192,8.0,13.0,-999,-99.99,,,-99.99,,2013-06-09 20:32:00,
2013-06-09 16:42:00,75.0,-99.9,-100.00,SSW,208,11.0,13.0,-999,-99.99,,,-99.99,,2013-06-09 20:42:00,
2013-06-09 16:53:00,75.0,-99.9,-100.00,South,191,11.0,13.0,-999,-99.99,,,-99.99,,2013-06-09 20:53:00,
2013-06-09 17:03:00,74.0,-99.9,30.09,SSW,192,12.0,13.0,-999,-99.99,,,-99.99,,2013-06-09 21:03:00,
2013-06-09 17:12:00,73.0,-99.9,-100.00,SSW,197,9.0,14.0,-999,-99.99,,,-99.99,,2013-06-09 21:12:00,
2013-06-09 17:22:00,74.0,-99.9,-100.00,SSW,201,12.0,13.0,-999,-99.99,,,-99.99,,2013-06-09 21:22:00,
2013-06-09 17:33:00,74.0,-99.9,30.09,SSW,206,10.0,11.0,-999,-99.99,,,-99.99,,2013-06-09 21:33:00,
2013-06-09 17:44:00,74.0,-99.9,-100.00,SSW,192,8.0,10.0,-999,-99.99,,,-99.99,,2013-06-09 21:44:00,
2013-06-09 17:53:00,74.0,-99.9,-100.00,SSW,196,11.0,12.0,-999,-99.99,,,-99.99,,2013-06-09 21:53:00,
2013-06-09 18:02:00,74.0,-99.9,30.09,SSW,192,12.0,14.0,-999,-99.99,,,-99.99,,2013-06-09 22:02:00,
2013-06-09 18:13:00,73.0,-99.9,-100.00,SSW,198,12.0,14.0,-999,-99.99,,,-99.99,,2013-06-09 22:13:00,
2013-06-09 18:23:00,73.0,-99.9,-100.00,SSW,196,10.0,14.0,-999,-99.99,,,-99.99,,2013-06-09 22:23:00,
2013-06-09 18:33:00,73.0,-99.9,-100.00,South,191,9.0,12.0,-999,-99.99,,,-99.99,,2013-06-09 22:33:00,
2013-06-09 18:42:00,73.0,-99.9,-100.00,South,191,10.0,12.0,-999,-99.99,,,-99.99,,2013-06-09 22:42:00,
2013-06-09 18:52:00,74.0,-99.9,-100.00,South,182,9.0,13.0,-999,-99.99,,,-99.99,,2013-06-09 22:52:00,
2013-06-09 19:02:00,74.0,-99.9,30.10,South,183,9.0,12.0,-999,-99.99,,,-99.99,,2013-06-09 23:02:00,
2013-06-09 19:12:00,74.0,-99.9,-100.00,South,183,8.0,11.0,-999,-99.99,,,-99.99,,2013-06-09 23:12:00,
2013-06-09 19:22:00,74.0,-99.9,-100.00,South,176,7.0,11.0,-999,-99.99,,,-99.99,,2013-06-09 23:22:00,
2013-06-09 19:32:00,74.0,-99.9,30.11,South,185,7.0,10.0,-999,-99.99,,,-99.99,,2013-06-09 23:32:00,
2013-06-09 19:43:00,74.0,-99.9,30.11,South,185,7.0,10.0,-999,-99.99,,,-99.99,,2013-06-09 23:43:00,
2013-06-09 19:52:00,74.0,-99.9,-100.00,South,177,3.0,6.0,-999,-99.99,,,-99.99,,2013-06-09 23:52:00,
2013-06-09 20:02:00,74.0,-99.9,-100.00,South,177,3.0,6.0,-999,-99.99,,,-99.99,,2013-06-10 00:02:00,
2013-06-09 20:13:00,74.0,-99.9,-100.00,South,177,3.0,6.0,-999,-99.99,,,-99.99,,2013-06-10 00:13:00,
2013-06-09 20:32:00,72.0,-99.9,30.12,South,185,6.0,10.0,-999,-99.99,,,-99.99,,2013-06-10 00:32:00,
2013-06-09 20:42:00,72.0,-99.9,-100.00,South,173,4.0,6.0,-999,-99.99,,,-99.99,,2013-06-10 00:42:00,
2013-06-09 20:52:00,71.0,-99.9,-100.00,South,172,4.0,8.0,-999,-99.99,,,-99.99,,2013-06-10 00:52:00,
2013-06-09 21:03:00,71.0,-99.9,30.12,South,174,4.0,7.0,-999,-99.99,,,-99.99,,2013-06-10 01:03:00,
2013-06-09 21:12:00,71.0,-99.9,-100.00,South,177,5.0,7.0,-999,-99.99,,,-99.99,,2013-06-10 01:12:00,
2013-06-09 21:22:00,70.0,-99.9,-100.00,South,184,4.0,7.0,-999,-99.99,,,-99.99,,2013-06-10 01:22:00,
2013-06-09 21:32:00,70.0,-99.9,30.13,South,170,5.0,6.0,-999,-99.99,,,-99.99,,2013-06-10 01:32:00,
2013-06-09 21:43:00,69.0,-99.9,-100.00,SSW,196,2.0,4.0,-999,-99.99,,,-99.99,,2013-06-10 01:43:00,
2013-06-09 21:52:00,70.0,-99.9,-100.00,SSE,167,2.0,4.0,-999,-99.99,,,-99.99,,2013-06-10 01:52:00,
2013-06-09 22:02:00,70.0,-99.9,30.14,South,185,3.0,4.0,-999,-99.99,,,-99.99,,2013-06-10 02:02:00,
2013-06-09 22:12:00,70.0,-99.9,-100.00,South,180,4.0,5.0,-999,-99.99,,,-99.99,,2013-06-10 02:12:00,
2013-06-09 22:22:00,70.0,-99.9,-100.00,South,172,4.0,6.0,-999,-99.99,,,-99.99,,2013-06-10 02:22:00,
2013-06-09 22:32:00,70.0,-99.9,30.14,South,171,4.0,6.0,-999,-99.99,,,-99.99,,2013-06-10 02:32:00,
2013-06-09 22:42:00,69.0,-99.9,-100.00,SSE,167,4.0,5.0,-999,-99.99,,,-99.99,,2013-06-10 02:42:00,
2013-06-09 22:52:00,69.0,-99.9,-100.00,South,188,3.0,4.0,-999,-99.99,,,-99.99,,2013-06-10 02:52:00,
2013-06-09 23:02:00,69.0,-99.9,30.15,South,185,3.0,4.0,-999,-99.99,,,-99.99,,2013-06-10 03:02:00,
2013-06-09 23:12:00,69.0,-99.9,-100.00,South,170,4.0,5.0,-999,-99.99,,,-99.99,,2013-06-10 03:12:00,
2013-06-09 23:22:00,68.0,-99.9,-100.00,South,170,4.0,6.0,-999,-99.99,,,-99.99,,2013-06-10 03:22:00,
2013-06-09 23:33:00,68.0,-99.9,30.14,SSE,162,4.0,6.0,-999,-99.99,,,-99.99,,2013-06-10 03:33:00,
2013-06-09 23:43:00,68.0,-99.9,-100.00,SSE,153,2.0,5.0,-999,-99.99,,,-99.99,,2013-06-10 03:43:00,
2013-06-09 23:53:00,67.0,-99.9,-100.00,SE,136,2.0,3.0,-999,-99.99,,,-99.99,,2013-06-10 03:53:00,